createdAt,value
2017-09-19T00:02:21.556Z,5.23
2017-09-19T00:04:49.020Z,4.13
2017-09-19T00:07:16.512Z,4.40
2017-09-19T00:09:43.977Z,4.90
2017-09-19T00:12:12.225Z,5.33
2017-09-19T00:14:39.744Z,4.23
2017-09-19T00:17:07.265Z,3.57
2017-09-19T00:19:34.744Z,4.97
2017-09-19T00:22:02.975Z,5.60
2017-09-19T00:24:30.810Z,6.13
2017-09-19T00:26:58.263Z,6.80
2017-09-19T00:29:25.730Z,4.83
2017-09-19T00:31:53.200Z,4.33
2017-09-19T00:34:20.677Z,4.77
2017-09-19T00:36:48.160Z,5.13
2017-09-19T00:39:16.410Z,4.87
2017-09-19T00:41:43.876Z,6.30
2017-09-19T00:44:11.364Z,5.00
2017-09-19T00:46:39.598Z,4.63
2017-09-19T00:49:07.071Z,5.23
2017-09-19T00:51:34.540Z,7.77
2017-09-19T00:54:02.004Z,4.43
2017-09-19T00:56:30.299Z,5.20
2017-09-19T00:58:57.845Z,5.40
2017-09-19T01:01:25.301Z,4.90
2017-09-19T01:03:53.548Z,5.77
2017-09-19T01:06:21.016Z,5.43
2017-09-19T01:08:48.487Z,5.63
2017-09-19T01:11:15.961Z,6.00
2017-09-19T01:13:44.201Z,5.10
2017-09-19T01:16:12.435Z,5.60
2017-09-19T01:18:39.906Z,5.57
2017-09-19T01:21:07.369Z,5.87
2017-09-19T01:23:34.832Z,5.40
2017-09-19T01:26:02.311Z,5.70
2017-09-19T01:28:29.784Z,7.13
2017-09-19T01:30:57.253Z,6.47
2017-09-19T01:33:25.480Z,6.37
2017-09-19T01:35:52.960Z,6.20
2017-09-19T01:38:20.434Z,7.00
2017-09-19T01:40:47.905Z,9.70
2017-09-19T01:43:16.144Z,6.67
2017-09-19T01:45:44.374Z,6.03
2017-09-19T01:48:11.867Z,6.67
2017-09-19T01:50:39.360Z,6.40
2017-09-19T01:53:06.833Z,7.57
2017-09-19T01:55:34.300Z,9.60
2017-09-19T01:58:02.537Z,7.33
2017-09-19T02:00:30.017Z,6.80
2017-09-19T02:02:57.479Z,7.23
2017-09-19T02:05:25.709Z,8.53
2017-09-19T02:07:53.197Z,7.07
2017-09-19T02:10:21.525Z,9.20
2017-09-19T02:12:49.001Z,6.10
2017-09-19T02:15:16.456Z,7.77
2017-09-19T02:17:43.915Z,9.63
2017-09-19T02:20:11.375Z,7.30
2017-09-19T02:22:38.843Z,7.10
2017-09-19T02:25:06.305Z,7.90
2017-09-19T02:27:34.535Z,7.77
2017-09-19T02:30:02.005Z,8.60
2017-09-19T02:32:29.483Z,6.77
2017-09-19T02:34:56.950Z,6.83
2017-09-19T02:37:24.422Z,7.63
2017-09-19T02:39:51.880Z,9.07
2017-09-19T02:42:19.364Z,8.63
2017-09-19T02:44:46.830Z,7.73
2017-09-19T02:47:15.063Z,8.17
2017-09-19T02:49:43.300Z,8.70
2017-09-19T02:52:10.778Z,8.23
2017-09-19T02:54:38.240Z,8.20
2017-09-19T02:57:05.720Z,7.33
2017-09-19T02:59:33.204Z,7.43
2017-09-19T03:02:00.663Z,7.37
2017-09-19T03:04:28.891Z,7.47
2017-09-19T03:06:56.349Z,8.57
2017-09-19T03:09:23.828Z,7.37
2017-09-19T03:11:51.282Z,8.10
2017-09-19T03:14:18.765Z,6.73
2017-09-19T03:16:46.236Z,8.47
2017-09-19T03:19:14.479Z,12.20
2017-09-19T03:21:41.952Z,8.47
2017-09-19T03:24:09.427Z,7.63
2017-09-19T03:26:37.665Z,7.63
2017-09-19T03:29:05.142Z,6.17
2017-09-19T03:31:32.614Z,6.23
2017-09-19T03:34:00.084Z,6.40
2017-09-19T03:36:28.306Z,7.57
2017-09-19T03:38:56.565Z,8.77
2017-09-19T03:41:24.029Z,8.33
2017-09-19T03:43:51.506Z,6.50
2017-09-19T03:46:18.977Z,6.23
2017-09-19T03:48:46.473Z,7.13
2017-09-19T03:51:14.697Z,8.10
2017-09-19T03:53:42.184Z,6.53
2017-09-19T03:56:09.651Z,6.47
2017-09-19T03:58:37.901Z,6.50
2017-09-19T04:01:05.359Z,5.83
2017-09-19T04:03:32.847Z,8.53
2017-09-19T04:06:01.063Z,7.20
2017-09-19T04:08:28.543Z,6.20
2017-09-19T04:10:56.012Z,6.23
2017-09-19T04:13:23.502Z,7.23
2017-09-19T04:15:51.742Z,6.70
2017-09-19T04:18:19.199Z,7.60
2017-09-19T04:20:46.676Z,7.53
2017-09-19T04:23:14.145Z,7.47
2017-09-19T04:25:41.616Z,7.30
2017-09-19T04:28:09.856Z,7.13
2017-09-19T04:30:37.326Z,7.03
2017-09-19T04:33:04.808Z,8.23
2017-09-19T04:35:33.049Z,6.10
2017-09-19T04:38:00.508Z,7.30
2017-09-19T04:40:28.000Z,7.33
2017-09-19T04:42:56.246Z,9.27
2017-09-19T04:45:23.716Z,7.73
2017-09-19T04:47:51.181Z,7.90
2017-09-19T04:50:19.419Z,8.73
2017-09-19T04:52:47.661Z,9.60
2017-09-19T04:55:15.132Z,8.13
2017-09-19T04:57:43.003Z,8.50
2017-09-19T05:00:10.475Z,12.13
2017-09-19T05:02:38.655Z,7.87
2017-09-19T05:05:06.118Z,8.73
2017-09-19T05:07:33.584Z,8.43
2017-09-19T05:10:01.047Z,7.97
2017-09-19T05:12:28.528Z,7.67
2017-09-19T05:14:56.756Z,11.20
2017-09-19T05:17:24.231Z,13.47
2017-09-19T05:19:51.697Z,9.17
2017-09-19T05:22:19.165Z,8.93
2017-09-19T05:24:46.629Z,13.13
2017-09-19T05:27:14.104Z,13.53
2017-09-19T05:29:42.336Z,11.80
2017-09-19T05:32:09.804Z,9.30
2017-09-19T05:34:37.267Z,9.80
2017-09-19T05:37:04.753Z,10.63
2017-09-19T05:39:32.998Z,10.70
2017-09-19T05:42:00.472Z,11.70
2017-09-19T05:44:27.944Z,10.27
2017-09-19T05:46:56.188Z,9.77
2017-09-19T05:49:23.654Z,12.40
2017-09-19T05:51:51.137Z,11.80
2017-09-19T05:54:19.392Z,13.17
2017-09-19T05:56:46.873Z,13.43
2017-09-19T05:59:15.117Z,13.93
2017-09-19T06:01:42.606Z,15.20
2017-09-19T06:04:10.849Z,12.00
2017-09-19T06:06:38.404Z,15.40
2017-09-19T06:09:17.876Z,15.00
2017-09-19T06:11:46.120Z,17.17
2017-09-19T06:14:13.603Z,15.27
2017-09-19T06:16:41.079Z,17.40
2017-09-19T06:19:09.333Z,17.57
2017-09-19T06:21:36.812Z,18.83
2017-09-19T06:24:05.064Z,16.57
2017-09-19T06:26:32.537Z,21.47
2017-09-19T06:29:00.022Z,17.73
2017-09-19T06:31:27.491Z,22.80
2017-09-19T06:33:54.984Z,17.63
2017-09-19T06:36:22.456Z,17.50
2017-09-19T06:38:49.948Z,20.80
2017-09-19T06:41:17.436Z,17.80
2017-09-19T06:43:44.913Z,18.83
2017-09-19T06:46:12.402Z,15.90
2017-09-19T06:48:39.885Z,17.13
2017-09-19T06:51:07.362Z,16.33
2017-09-19T06:53:34.847Z,13.00
2017-09-19T06:56:02.320Z,13.10
2017-09-19T06:58:29.805Z,13.93
2017-09-19T07:00:58.038Z,10.30
2017-09-19T07:03:25.520Z,11.33
2017-09-19T07:05:52.995Z,10.50
2017-09-19T07:08:21.237Z,9.50
2017-09-19T07:10:48.709Z,11.27
2017-09-19T07:13:16.177Z,11.07
2017-09-19T07:15:43.684Z,10.97
2017-09-19T07:18:11.148Z,9.10
2017-09-19T07:20:38.636Z,12.93
2017-09-19T07:23:06.108Z,10.37
2017-09-19T07:25:33.584Z,10.30
2017-09-19T07:28:01.815Z,9.70
2017-09-19T07:30:29.289Z,9.07
2017-09-19T07:32:56.754Z,8.80
2017-09-19T07:35:24.224Z,9.33
2017-09-19T07:37:52.459Z,9.47
2017-09-19T07:40:19.932Z,9.07
2017-09-19T07:42:47.400Z,7.03
2017-09-19T07:45:14.886Z,7.17
2017-09-19T07:47:43.116Z,7.07
2017-09-19T07:50:10.587Z,7.97
2017-09-19T07:52:38.059Z,7.80
2017-09-19T07:55:05.534Z,7.37
2017-09-19T07:57:33.769Z,8.20
2017-09-19T08:00:01.250Z,8.50
2017-09-19T08:02:28.728Z,7.70
2017-09-19T08:04:56.964Z,7.73
2017-09-19T08:07:24.419Z,5.70
2017-09-19T08:09:51.906Z,7.10
2017-09-19T08:12:19.363Z,7.10
2017-09-19T08:14:46.840Z,7.27
2017-09-19T08:17:15.071Z,6.40
2017-09-19T08:19:43.316Z,6.50
2017-09-19T08:22:10.790Z,7.40
2017-09-19T08:24:38.291Z,6.33
2017-09-19T08:27:05.768Z,9.00
2017-09-19T08:29:33.261Z,7.83
2017-09-19T08:32:00.737Z,12.57
2017-09-19T08:34:28.199Z,6.67
2017-09-19T08:36:55.671Z,7.53
2017-09-19T08:39:23.143Z,5.97
2017-09-19T08:41:50.624Z,6.23
2017-09-19T08:44:18.856Z,5.87
2017-09-19T08:46:46.347Z,5.33
2017-09-19T08:49:14.574Z,5.20
2017-09-19T08:51:42.043Z,6.67
2017-09-19T08:54:09.505Z,6.43
2017-09-19T08:56:36.985Z,7.00
2017-09-19T08:59:04.443Z,6.47
2017-09-19T09:01:31.921Z,5.80
2017-09-19T09:04:00.163Z,6.57
2017-09-19T09:06:27.642Z,6.33
2017-09-19T09:08:55.108Z,6.27
2017-09-19T09:11:23.351Z,11.57
2017-09-19T09:13:50.823Z,7.70
2017-09-19T09:16:18.305Z,6.73
2017-09-19T09:18:46.545Z,7.40
2017-09-19T09:21:14.381Z,8.73
2017-09-19T09:23:41.853Z,6.37
2017-09-19T09:26:09.316Z,7.33
2017-09-19T09:28:36.789Z,7.70
2017-09-19T09:31:04.252Z,6.60
2017-09-19T09:33:31.723Z,7.80
2017-09-19T09:35:59.192Z,5.70
2017-09-19T09:38:27.423Z,6.47
2017-09-19T09:40:54.884Z,7.23
2017-09-19T09:43:22.351Z,5.53
2017-09-19T09:45:49.813Z,7.90
2017-09-19T09:48:17.644Z,7.10
2017-09-19T09:50:45.093Z,6.47
2017-09-19T09:53:12.572Z,5.70
2017-09-19T09:55:40.032Z,5.30
2017-09-19T09:58:07.512Z,6.07
2017-09-19T10:00:34.977Z,5.63
2017-09-19T10:03:02.486Z,6.70
2017-09-19T10:05:33.958Z,5.80
2017-09-19T10:08:01.540Z,7.90
2017-09-19T10:10:29.012Z,8.23
2017-09-19T10:12:56.483Z,9.90
2017-09-19T10:15:23.950Z,6.63
2017-09-19T10:17:52.190Z,5.93
2017-09-19T10:20:19.671Z,6.20
2017-09-19T10:22:47.140Z,5.70
2017-09-19T10:25:15.368Z,4.67
2017-09-19T10:27:43.647Z,4.97
2017-09-19T10:30:11.123Z,3.90
2017-09-19T10:32:38.605Z,4.43
2017-09-19T10:35:06.081Z,5.20
2017-09-19T10:37:34.312Z,4.40
2017-09-19T10:40:01.787Z,3.13
2017-09-19T10:42:29.253Z,3.33
2017-09-19T10:44:56.738Z,3.53
2017-09-19T10:47:24.964Z,3.27
2017-09-19T10:49:52.427Z,3.47
2017-09-19T10:52:19.912Z,4.13
2017-09-19T10:54:47.387Z,3.40
2017-09-19T10:57:15.663Z,3.50
2017-09-19T10:59:43.114Z,4.20
2017-09-19T11:02:11.356Z,3.83
2017-09-19T11:04:38.831Z,4.87
2017-09-19T11:07:06.309Z,4.57
2017-09-19T11:09:34.547Z,4.63
2017-09-19T11:12:02.016Z,5.20
2017-09-19T11:14:29.488Z,4.97
2017-09-19T11:16:56.948Z,4.70
2017-09-19T11:19:25.192Z,5.13
2017-09-19T11:21:52.652Z,3.63
2017-09-19T11:24:20.130Z,5.83
2017-09-19T11:26:47.610Z,4.20
2017-09-19T11:29:15.841Z,4.67
2017-09-19T11:31:43.340Z,4.60
2017-09-19T11:34:11.584Z,6.00
2017-09-19T11:36:39.057Z,7.70
2017-09-19T11:39:06.517Z,5.13
2017-09-19T11:41:34.003Z,6.30
2017-09-19T11:44:02.228Z,4.00
2017-09-19T11:46:29.708Z,4.90
2017-09-19T11:48:57.180Z,4.13
2017-09-19T11:51:25.415Z,4.87
2017-09-19T11:53:52.882Z,4.40
2017-09-19T11:56:20.359Z,4.17
2017-09-19T11:58:48.610Z,5.53
2017-09-19T12:01:16.089Z,4.50
2017-09-19T12:03:43.552Z,4.93
2017-09-19T12:06:11.034Z,5.30
2017-09-19T12:08:39.269Z,4.87
2017-09-19T12:11:06.760Z,5.00
2017-09-19T12:13:34.989Z,6.23
2017-09-19T12:16:02.461Z,6.67
2017-09-19T12:18:29.928Z,6.17
2017-09-19T12:20:57.406Z,8.57
2017-09-19T12:23:24.867Z,4.53
2017-09-19T12:25:53.169Z,6.20
2017-09-19T12:28:20.656Z,6.33
2017-09-19T12:30:48.162Z,5.43
2017-09-19T12:33:16.397Z,5.20
2017-09-19T12:35:44.632Z,6.83
2017-09-19T12:38:12.128Z,7.20
2017-09-19T12:40:39.608Z,7.00
2017-09-19T12:43:07.092Z,6.60
2017-09-19T12:45:35.407Z,7.13
2017-09-19T12:48:02.946Z,8.07
2017-09-19T12:50:30.415Z,7.17
2017-09-19T12:52:57.898Z,7.50
2017-09-19T12:55:25.399Z,9.53
2017-09-19T12:57:53.035Z,9.40
2017-09-19T13:00:20.559Z,8.23
2017-09-19T13:02:48.077Z,9.03
2017-09-19T13:05:15.567Z,11.07
2017-09-19T13:07:43.045Z,10.27
2017-09-19T13:10:10.507Z,9.13
2017-09-19T13:12:38.065Z,8.97
2017-09-19T13:15:05.539Z,7.93
2017-09-19T13:17:33.020Z,7.83
2017-09-19T13:20:00.483Z,9.80
2017-09-19T13:22:27.957Z,8.43
2017-09-19T13:24:55.432Z,8.73
2017-09-19T13:27:22.925Z,9.33
2017-09-19T13:29:50.394Z,7.50
2017-09-19T13:32:29.759Z,8.30
2017-09-19T13:34:57.996Z,8.50
2017-09-19T13:37:25.454Z,9.73
2017-09-19T13:39:52.925Z,8.47
2017-09-19T13:42:20.397Z,9.23
2017-09-19T13:44:48.637Z,8.80
2017-09-19T13:47:16.101Z,11.03
2017-09-19T13:49:43.584Z,8.87
2017-09-19T13:52:11.815Z,9.13
2017-09-19T13:54:39.286Z,9.37
2017-09-19T13:57:06.761Z,9.33
2017-09-19T13:59:34.227Z,8.83
2017-09-19T14:02:01.699Z,8.80
2017-09-19T14:04:29.944Z,8.97
2017-09-19T14:06:57.412Z,8.33
2017-09-19T14:09:24.871Z,9.37
2017-09-19T14:11:53.179Z,8.30
2017-09-19T14:14:21.409Z,8.80
2017-09-19T14:16:48.894Z,10.53
2017-09-19T14:19:16.366Z,10.10
2017-09-19T14:21:44.617Z,9.37
2017-09-19T14:24:12.083Z,9.03
2017-09-19T14:26:39.555Z,11.43
2017-09-19T14:29:07.792Z,10.33
2017-09-19T14:31:35.268Z,9.03
2017-09-19T14:34:02.732Z,10.33
2017-09-19T14:36:30.225Z,8.90
2017-09-19T14:38:57.687Z,9.77
2017-09-19T14:41:25.166Z,9.73
2017-09-19T14:43:52.627Z,11.60
2017-09-19T14:46:20.104Z,11.70
2017-09-19T14:48:48.352Z,11.37
2017-09-19T14:51:15.827Z,11.70
2017-09-19T14:53:43.296Z,10.80
2017-09-19T14:56:10.776Z,12.57
2017-09-19T14:58:38.252Z,11.83
2017-09-19T15:01:06.509Z,18.27
2017-09-19T15:03:33.990Z,14.03
2017-09-19T15:06:02.240Z,11.93
2017-09-19T15:08:29.709Z,14.03
2017-09-19T15:10:57.188Z,6.83
2017-09-19T15:13:25.426Z,8.03
2017-09-19T15:15:52.893Z,4.80
2017-09-19T15:18:20.375Z,4.70
2017-09-19T15:20:48.609Z,6.27
2017-09-19T15:23:16.099Z,4.83
2017-09-19T15:25:44.354Z,7.07
2017-09-19T15:28:11.831Z,6.57
2017-09-19T15:30:39.293Z,6.77
2017-09-19T15:33:07.542Z,6.73
2017-09-19T15:35:35.004Z,6.60
2017-09-19T15:38:02.488Z,6.10
2017-09-19T15:40:30.720Z,5.13
2017-09-19T15:42:58.196Z,7.90
2017-09-19T15:45:25.661Z,6.80
2017-09-19T15:47:53.140Z,7.13
2017-09-19T15:50:21.372Z,9.30
2017-09-19T15:52:48.858Z,9.57
2017-09-19T15:55:16.311Z,11.50
2017-09-19T15:57:43.796Z,11.27
2017-09-19T16:00:12.036Z,10.50
2017-09-19T16:02:39.512Z,12.33
2017-09-19T16:05:06.985Z,12.70
2017-09-19T16:07:35.225Z,14.33
2017-09-19T16:10:02.705Z,12.77
2017-09-19T16:12:30.170Z,13.87
2017-09-19T16:14:57.667Z,13.33
2017-09-19T16:17:25.150Z,18.80
2017-09-19T16:19:52.624Z,16.40
2017-09-19T16:22:20.103Z,15.90
2017-09-19T16:24:47.582Z,14.87
2017-09-19T16:27:15.813Z,14.30
2017-09-19T16:29:43.301Z,13.40
2017-09-19T16:32:10.782Z,16.57
2017-09-19T16:34:39.015Z,15.47
2017-09-19T16:37:06.500Z,18.77
2017-09-19T16:39:34.740Z,18.70
2017-09-19T16:42:02.978Z,18.50
2017-09-19T16:44:30.455Z,26.77
2017-09-19T16:46:57.927Z,20.93
2017-09-19T16:49:25.409Z,19.57
2017-09-19T16:51:53.082Z,23.83
2017-09-19T16:54:20.595Z,23.13
2017-09-19T16:56:48.060Z,23.13
2017-09-19T16:59:15.577Z,25.70
2017-09-19T17:01:43.010Z,22.33
2017-09-19T17:04:10.487Z,20.47
2017-09-19T17:06:38.720Z,24.47
2017-09-19T17:09:06.211Z,26.73
2017-09-19T17:11:33.681Z,24.87
2017-09-19T17:14:01.944Z,23.93
2017-09-19T17:16:29.409Z,26.93
2017-09-19T17:18:57.672Z,27.93
2017-09-19T17:21:25.141Z,27.17
2017-09-19T17:23:52.615Z,24.47
2017-09-19T17:26:20.852Z,27.17
2017-09-19T17:28:48.352Z,28.87
2017-09-19T17:31:16.601Z,29.50
2017-09-19T17:33:44.080Z,31.10
2017-09-19T17:36:12.324Z,27.00
2017-09-19T17:38:39.791Z,28.60
2017-09-19T17:41:07.281Z,28.13
2017-09-19T17:43:35.526Z,25.73
2017-09-19T17:46:03.023Z,25.20
2017-09-19T17:48:30.495Z,25.90
2017-09-19T17:50:57.976Z,26.10
2017-09-19T17:53:25.441Z,30.00
2017-09-19T17:55:53.693Z,27.60
2017-09-19T17:58:21.557Z,29.90
2017-09-19T18:00:49.027Z,30.47
2017-09-19T18:03:16.495Z,29.10
2017-09-19T18:05:43.984Z,28.63
2017-09-19T18:08:11.451Z,25.93
2017-09-19T18:10:39.688Z,30.33
2017-09-19T18:13:07.153Z,27.67
2017-09-19T18:15:34.632Z,24.20
2017-09-19T18:18:02.103Z,24.80
2017-09-19T18:20:30.348Z,27.10
2017-09-19T18:22:58.155Z,25.27
2017-09-19T18:25:26.405Z,24.10
2017-09-19T18:27:53.880Z,24.80
2017-09-19T18:30:22.120Z,25.67
2017-09-19T18:32:49.592Z,26.80
2017-09-19T18:35:17.062Z,25.60
2017-09-19T18:37:44.539Z,29.63
2017-09-19T18:40:12.770Z,23.93
2017-09-19T18:42:40.256Z,25.73
2017-09-19T18:45:07.780Z,25.47
2017-09-19T18:47:35.644Z,26.83
2017-09-19T18:50:03.120Z,28.33
2017-09-19T18:52:31.368Z,25.40
2017-09-19T18:54:58.838Z,25.40
2017-09-19T18:57:26.325Z,26.67
2017-09-19T18:59:53.814Z,23.23
2017-09-19T19:02:22.082Z,26.03
2017-09-19T19:04:49.568Z,28.80
2017-09-19T19:07:17.056Z,24.90
2017-09-19T19:09:44.539Z,24.40
2017-09-19T19:12:12.023Z,30.07
2017-09-19T19:14:40.255Z,24.73
2017-09-19T19:17:07.729Z,25.20
2017-09-19T19:19:35.210Z,20.90
2017-09-19T19:22:03.458Z,25.73
2017-09-19T19:24:30.939Z,21.47
2017-09-19T19:26:58.431Z,23.07
2017-09-19T19:29:25.921Z,21.87
2017-09-19T19:31:53.435Z,20.50
2017-09-19T19:34:21.684Z,22.30
2017-09-19T19:36:49.150Z,25.33
2017-09-19T19:39:16.630Z,24.53
2017-09-19T19:41:44.115Z,27.57
2017-09-19T19:44:11.617Z,23.63
2017-09-19T19:46:39.137Z,27.43
2017-09-19T19:49:06.619Z,28.23
2017-09-19T19:51:34.113Z,25.83
2017-09-19T19:54:02.380Z,32.20
2017-09-19T19:56:29.867Z,25.93
2017-09-19T19:58:57.351Z,24.73
2017-09-19T20:01:24.842Z,25.27
2017-09-19T20:03:52.316Z,26.03
2017-09-19T20:06:20.564Z,26.90
2017-09-19T20:08:48.091Z,31.10
2017-09-19T20:11:15.639Z,28.53
2017-09-19T20:13:43.201Z,29.00
2017-09-19T20:16:10.691Z,29.00
2017-09-19T20:18:38.172Z,33.73
2017-09-19T20:21:05.665Z,31.03
2017-09-19T20:23:33.905Z,33.07
2017-09-19T20:26:01.450Z,33.10
2017-09-19T20:28:28.922Z,36.50
2017-09-19T20:30:56.404Z,34.53
2017-09-19T20:33:24.652Z,37.00
2017-09-19T20:35:52.137Z,34.63
2017-09-19T20:38:19.604Z,34.47
2017-09-19T20:40:47.849Z,34.20
2017-09-19T20:43:15.329Z,33.87
2017-09-19T20:45:42.798Z,33.73
2017-09-19T20:48:11.043Z,36.17
2017-09-19T20:50:38.526Z,33.70
2017-09-19T20:53:05.987Z,36.93
2017-09-19T20:55:34.252Z,31.47
2017-09-19T20:58:01.732Z,33.00
2017-09-19T21:00:29.217Z,29.70
2017-09-19T21:02:56.212Z,33.40
2017-09-19T21:05:29.434Z,28.80
2017-09-19T21:08:03.480Z,42.30
2017-09-19T21:10:36.704Z,28.07
2017-09-19T21:13:09.989Z,29.80
2017-09-19T21:15:43.064Z,27.10
2017-09-19T21:18:16.357Z,27.63
2017-09-19T21:20:43.852Z,24.90
2017-09-19T21:23:11.332Z,27.63
2017-09-19T21:25:39.560Z,34.73
2017-09-19T21:28:07.080Z,31.90
2017-09-19T21:30:34.556Z,28.57
2017-09-19T21:33:02.035Z,35.00
2017-09-19T21:35:29.526Z,33.20
2017-09-19T21:37:57.013Z,34.33
2017-09-19T21:40:24.518Z,35.67
2017-09-19T21:42:52.023Z,34.30
2017-09-19T21:45:19.502Z,41.03
2017-09-19T21:47:46.985Z,37.60
2017-09-19T21:50:14.461Z,41.67
2017-09-19T21:52:41.954Z,38.57
2017-09-19T21:55:10.175Z,44.30
2017-09-19T21:57:37.664Z,42.50
2017-09-19T22:00:05.155Z,49.20
2017-09-19T22:02:32.674Z,45.47
2017-09-19T22:05:00.187Z,45.93
2017-09-19T22:07:27.689Z,45.53
2017-09-19T22:09:55.160Z,40.37
2017-09-19T22:12:22.623Z,45.17
2017-09-19T22:14:50.876Z,39.43
2017-09-19T22:17:18.357Z,38.87
2017-09-19T22:19:46.609Z,36.03
2017-09-19T22:22:14.095Z,34.97
2017-09-19T22:24:42.343Z,37.70
2017-09-19T22:27:09.828Z,36.57
2017-09-19T22:29:38.078Z,39.47
2017-09-19T22:32:05.565Z,39.27
2017-09-19T22:34:33.812Z,38.13
2017-09-19T22:37:01.292Z,37.87
2017-09-19T22:39:28.792Z,35.90
2017-09-19T22:41:56.268Z,34.67
2017-09-19T22:44:23.756Z,38.77
2017-09-19T22:46:51.238Z,35.27
2017-09-19T22:49:19.485Z,44.03
2017-09-19T22:51:46.960Z,41.27
2017-09-19T22:54:14.511Z,39.27
2017-09-19T22:56:41.985Z,40.87
2017-09-19T22:59:10.225Z,41.70
2017-09-19T23:01:37.700Z,43.13
2017-09-19T23:04:05.176Z,44.27
2017-09-19T23:06:32.654Z,41.53
2017-09-19T23:09:00.897Z,35.80
2017-09-19T23:11:28.375Z,40.20
2017-09-19T23:13:56.616Z,40.43
2017-09-19T23:16:24.097Z,50.07
2017-09-19T23:18:51.574Z,36.57
2017-09-19T23:21:19.834Z,41.93
2017-09-19T23:23:47.301Z,41.27
2017-09-19T23:26:15.549Z,39.83
2017-09-19T23:28:43.020Z,38.33
2017-09-19T23:31:10.505Z,45.87
2017-09-19T23:33:38.743Z,46.53
2017-09-19T23:36:06.580Z,44.33
2017-09-19T23:38:34.053Z,43.63
2017-09-19T23:41:01.538Z,48.70
2017-09-19T23:43:29.007Z,48.27
2017-09-19T23:45:56.493Z,44.03
2017-09-19T23:48:23.968Z,44.27
2017-09-19T23:50:51.451Z,41.57
2017-09-19T23:53:18.936Z,47.60
2017-09-19T23:55:47.198Z,39.00
2017-09-19T23:58:14.663Z,39.43
